sensor_id;sensor_type;location;lat;lon;timestamp;temperature;humidity
52459;DHT22;38372;52.902;6.024;2022-12-18T00:01:05;-2.70;99.90
52459;DHT22;38372;52.902;6.024;2022-12-18T00:03:35;-2.70;99.90
52459;DHT22;38372;52.902;6.024;2022-12-18T00:06:02;-2.70;99.90
52459;DHT22;38372;52.902;6.024;2022-12-18T00:08:28;-2.80;99.90
52459;DHT22;38372;52.902;6.024;2022-12-18T00:10:54;-2.80;99.90
52459;DHT22;38372;52.902;6.024;2022-12-18T00:13:20;-2.80;99.90
52459;DHT22;38372;52.902;6.024;2022-12-18T00:15:46;-2.80;99.90
52459;DHT22;38372;52.902;6.024;2022-12-18T00:18:12;-2.80;99.90
52459;DHT22;38372;52.902;6.024;2022-12-18T00:20:39;-2.80;99.90
52459;DHT22;38372;52.902;6.024;2022-12-18T00:23:05;-2.80;99.90
52459;DHT22;38372;52.902;6.024;2022-12-18T00:25:36;-2.90;99.90
52459;DHT22;38372;52.902;6.024;2022-12-18T00:28:03;-2.90;99.90
52459;DHT22;38372;52.902;6.024;2022-12-18T00:30:29;-2.90;99.90
52459;DHT22;38372;52.902;6.024;2022-12-18T00:32:55;-2.90;99.90
52459;DHT22;38372;52.902;6.024;2022-12-18T00:35:21;-3.00;99.90
52459;DHT22;38372;52.902;6.024;2022-12-18T00:37:47;-3.00;99.90
52459;DHT22;38372;52.902;6.024;2022-12-18T00:40:13;-3.10;99.90
52459;DHT22;38372;52.902;6.024;2022-12-18T00:42:39;-3.10;99.90
52459;DHT22;38372;52.902;6.024;2022-12-18T00:45:27;-3.10;99.90
52459;DHT22;38372;52.902;6.024;2022-12-18T00:47:53;-3.10;99.90
52459;DHT22;38372;52.902;6.024;2022-12-18T00:50:20;-3.10;99.90
52459;DHT22;38372;52.902;6.024;2022-12-18T00:52:46;-3.20;99.90
52459;DHT22;38372;52.902;6.024;2022-12-18T00:55:13;-3.20;99.90
52459;DHT22;38372;52.902;6.024;2022-12-18T00:57:39;-3.20;99.90
52459;DHT22;38372;52.902;6.024;2022-12-18T01:00:07;-3.30;99.90
52459;DHT22;38372;52.902;6.024;2022-12-18T01:02:33;-3.30;99.90
52459;DHT22;38372;52.902;6.024;2022-12-18T01:04:59;-3.30;99.90
52459;DHT22;38372;52.902;6.024;2022-12-18T01:07:24;-3.40;99.90
52459;DHT22;38372;52.902;6.024;2022-12-18T01:09:50;-3.40;99.90
52459;DHT22;38372;52.902;6.024;2022-12-18T01:12:16;-3.40;99.90
52459;DHT22;38372;52.902;6.024;2022-12-18T01:14:42;-3.40;99.90
52459;DHT22;38372;52.902;6.024;2022-12-18T01:17:08;-3.50;99.90
52459;DHT22;38372;52.902;6.024;2022-12-18T01:19:33;-3.50;99.90
52459;DHT22;38372;52.902;6.024;2022-12-18T01:21:59;-3.50;99.90
52459;DHT22;38372;52.902;6.024;2022-12-18T01:24:25;-3.50;99.90
52459;DHT22;38372;52.902;6.024;2022-12-18T01:26:51;-3.50;99.90
52459;DHT22;38372;52.902;6.024;2022-12-18T01:29:17;-3.60;99.90
52459;DHT22;38372;52.902;6.024;2022-12-18T01:31:43;-3.60;99.90
52459;DHT22;38372;52.902;6.024;2022-12-18T01:34:09;-3.70;99.90
52459;DHT22;38372;52.902;6.024;2022-12-18T01:36:37;-3.70;99.90
52459;DHT22;38372;52.902;6.024;2022-12-18T01:39:06;-3.70;99.90
52459;DHT22;38372;52.902;6.024;2022-12-18T01:41:32;-3.80;99.90
52459;DHT22;38372;52.902;6.024;2022-12-18T01:49:57;-3.80;99.90
52459;DHT22;38372;52.902;6.024;2022-12-18T01:52:27;-3.80;99.90
52459;DHT22;38372;52.902;6.024;2022-12-18T01:54:54;-3.80;99.90
52459;DHT22;38372;52.902;6.024;2022-12-18T01:57:22;-3.80;99.90
52459;DHT22;38372;52.902;6.024;2022-12-18T01:59:51;-3.80;99.90
52459;DHT22;38372;52.902;6.024;2022-12-18T02:02:19;-3.80;99.90
52459;DHT22;38372;52.902;6.024;2022-12-18T02:04:46;-3.90;99.90
52459;DHT22;38372;52.902;6.024;2022-12-18T02:18:12;-3.90;99.90
52459;DHT22;38372;52.902;6.024;2022-12-18T02:20:44;-3.90;99.90
52459;DHT22;38372;52.902;6.024;2022-12-18T02:26:11;-3.90;99.90
52459;DHT22;38372;52.902;6.024;2022-12-18T02:28:51;-3.90;99.90
52459;DHT22;38372;52.902;6.024;2022-12-18T02:31:26;-3.90;99.90
52459;DHT22;38372;52.902;6.024;2022-12-18T02:33:58;-3.90;99.90
52459;DHT22;38372;52.902;6.024;2022-12-18T02:36:27;-3.90;99.90
52459;DHT22;38372;52.902;6.024;2022-12-18T02:38:54;-3.90;99.90
52459;DHT22;38372;52.902;6.024;2022-12-18T02:41:40;-3.90;99.90
52459;DHT22;38372;52.902;6.024;2022-12-18T02:44:11;-3.90;99.90
52459;DHT22;38372;52.902;6.024;2022-12-18T02:46:46;-3.90;99.90
52459;DHT22;38372;52.902;6.024;2022-12-18T02:54:49;-4.00;99.90
52459;DHT22;38372;52.902;6.024;2022-12-18T03:00:28;-4.10;99.90
52459;DHT22;38372;52.902;6.024;2022-12-18T03:03:24;-4.20;99.90
52459;DHT22;38372;52.902;6.024;2022-12-18T03:05:55;-4.20;99.90
52459;DHT22;38372;52.902;6.024;2022-12-18T03:08:24;-4.30;99.90
52459;DHT22;38372;52.902;6.024;2022-12-18T03:11:01;-4.30;99.90
52459;DHT22;38372;52.902;6.024;2022-12-18T03:13:37;-4.30;99.90
52459;DHT22;38372;52.902;6.024;2022-12-18T03:16:07;-4.40;99.90
52459;DHT22;38372;52.902;6.024;2022-12-18T03:18:43;-4.40;99.90
52459;DHT22;38372;52.902;6.024;2022-12-18T03:21:12;-4.40;99.90
52459;DHT22;38372;52.902;6.024;2022-12-18T03:23:46;-4.50;99.90
52459;DHT22;38372;52.902;6.024;2022-12-18T03:26:16;-4.50;99.90
52459;DHT22;38372;52.902;6.024;2022-12-18T03:28:50;-4.60;99.90
52459;DHT22;38372;52.902;6.024;2022-12-18T03:31:18;-4.60;99.90
52459;DHT22;38372;52.902;6.024;2022-12-18T03:33:54;-4.60;99.90
52459;DHT22;38372;52.902;6.024;2022-12-18T03:36:20;-4.70;99.90
52459;DHT22;38372;52.902;6.024;2022-12-18T03:38:46;-4.70;99.90
52459;DHT22;38372;52.902;6.024;2022-12-18T03:44:00;-4.80;99.90
52459;DHT22;38372;52.902;6.024;2022-12-18T03:49:24;-4.80;99.90
52459;DHT22;38372;52.902;6.024;2022-12-18T03:52:01;-4.90;99.90
52459;DHT22;38372;52.902;6.024;2022-12-18T03:54:29;-4.90;99.90
52459;DHT22;38372;52.902;6.024;2022-12-18T03:57:03;-4.90;99.90
52459;DHT22;38372;52.902;6.024;2022-12-18T03:59:31;-4.90;99.90
52459;DHT22;38372;52.902;6.024;2022-12-18T04:01:59;-5.00;99.90
52459;DHT22;38372;52.902;6.024;2022-12-18T04:04:27;-5.00;99.90
52459;DHT22;38372;52.902;6.024;2022-12-18T04:06:54;-5.10;99.90
52459;DHT22;38372;52.902;6.024;2022-12-18T04:09:21;-5.10;99.90
52459;DHT22;38372;52.902;6.024;2022-12-18T04:11:47;-5.10;99.90
52459;DHT22;38372;52.902;6.024;2022-12-18T04:14:14;-5.10;99.90
52459;DHT22;38372;52.902;6.024;2022-12-18T04:16:40;-5.20;99.90
52459;DHT22;38372;52.902;6.024;2022-12-18T04:19:06;-5.20;99.90
52459;DHT22;38372;52.902;6.024;2022-12-18T04:21:31;-5.20;99.90
52459;DHT22;38372;52.902;6.024;2022-12-18T04:23:57;-5.20;99.90
52459;DHT22;38372;52.902;6.024;2022-12-18T04:26:23;-5.30;99.90
52459;DHT22;38372;52.902;6.024;2022-12-18T04:28:49;-5.30;99.90
52459;DHT22;38372;52.902;6.024;2022-12-18T04:31:14;-5.30;99.90
52459;DHT22;38372;52.902;6.024;2022-12-18T04:33:40;-5.30;99.90
52459;DHT22;38372;52.902;6.024;2022-12-18T04:36:06;-5.40;99.90
52459;DHT22;38372;52.902;6.024;2022-12-18T04:38:32;-5.40;99.90
52459;DHT22;38372;52.902;6.024;2022-12-18T04:40:58;-5.40;99.90
52459;DHT22;38372;52.902;6.024;2022-12-18T04:43:24;-5.50;99.90
52459;DHT22;38372;52.902;6.024;2022-12-18T04:45:50;-5.50;99.90
52459;DHT22;38372;52.902;6.024;2022-12-18T04:48:16;-5.50;99.90
52459;DHT22;38372;52.902;6.024;2022-12-18T04:50:41;-5.50;99.90
52459;DHT22;38372;52.902;6.024;2022-12-18T04:53:07;-5.50;99.90
52459;DHT22;38372;52.902;6.024;2022-12-18T04:55:33;-5.50;99.90
52459;DHT22;38372;52.902;6.024;2022-12-18T04:57:59;-5.50;99.90
52459;DHT22;38372;52.902;6.024;2022-12-18T05:00:24;-5.50;99.90
52459;DHT22;38372;52.902;6.024;2022-12-18T05:02:50;-5.50;99.90
52459;DHT22;38372;52.902;6.024;2022-12-18T05:05:16;-5.50;99.90
52459;DHT22;38372;52.902;6.024;2022-12-18T05:07:42;-5.60;99.90
52459;DHT22;38372;52.902;6.024;2022-12-18T05:10:08;-5.60;99.90
52459;DHT22;38372;52.902;6.024;2022-12-18T05:12:34;-5.60;99.90
52459;DHT22;38372;52.902;6.024;2022-12-18T05:15:20;-5.60;99.90
52459;DHT22;38372;52.902;6.024;2022-12-18T05:17:45;-5.60;99.90
52459;DHT22;38372;52.902;6.024;2022-12-18T05:20:11;-5.70;99.90
52459;DHT22;38372;52.902;6.024;2022-12-18T05:22:37;-5.70;99.90
52459;DHT22;38372;52.902;6.024;2022-12-18T05:25:03;-5.70;99.90
52459;DHT22;38372;52.902;6.024;2022-12-18T05:27:28;-5.70;99.90
52459;DHT22;38372;52.902;6.024;2022-12-18T05:29:54;-5.70;99.90
52459;DHT22;38372;52.902;6.024;2022-12-18T05:32:20;-5.70;99.90
52459;DHT22;38372;52.902;6.024;2022-12-18T05:34:46;-5.70;99.90
52459;DHT22;38372;52.902;6.024;2022-12-18T05:37:12;-5.70;99.90
52459;DHT22;38372;52.902;6.024;2022-12-18T05:39:38;-5.80;99.90
52459;DHT22;38372;52.902;6.024;2022-12-18T05:42:04;-5.80;99.90
52459;DHT22;38372;52.902;6.024;2022-12-18T05:44:30;-5.80;99.90
52459;DHT22;38372;52.902;6.024;2022-12-18T05:46:55;-5.80;99.90
52459;DHT22;38372;52.902;6.024;2022-12-18T05:49:21;-5.80;99.90
52459;DHT22;38372;52.902;6.024;2022-12-18T05:51:47;-5.80;99.90
52459;DHT22;38372;52.902;6.024;2022-12-18T05:54:13;-5.70;99.90
52459;DHT22;38372;52.902;6.024;2022-12-18T05:56:38;-5.70;99.90
52459;DHT22;38372;52.902;6.024;2022-12-18T05:59:04;-5.60;99.90
52459;DHT22;38372;52.902;6.024;2022-12-18T06:01:30;-5.60;99.90
52459;DHT22;38372;52.902;6.024;2022-12-18T06:03:56;-5.60;99.90
52459;DHT22;38372;52.902;6.024;2022-12-18T06:06:26;-5.60;99.90
52459;DHT22;38372;52.902;6.024;2022-12-18T06:08:52;-5.60;99.90
52459;DHT22;38372;52.902;6.024;2022-12-18T06:11:21;-5.70;99.90
52459;DHT22;38372;52.902;6.024;2022-12-18T06:13:52;-5.70;99.90
52459;DHT22;38372;52.902;6.024;2022-12-18T06:16:19;-5.70;99.90
52459;DHT22;38372;52.902;6.024;2022-12-18T06:18:45;-5.70;99.90
52459;DHT22;38372;52.902;6.024;2022-12-18T06:21:11;-5.70;99.90
52459;DHT22;38372;52.902;6.024;2022-12-18T06:23:37;-5.70;99.90
52459;DHT22;38372;52.902;6.024;2022-12-18T06:26:09;-5.70;99.90
52459;DHT22;38372;52.902;6.024;2022-12-18T06:28:35;-5.80;99.90
52459;DHT22;38372;52.902;6.024;2022-12-18T06:31:03;-5.80;99.90
52459;DHT22;38372;52.902;6.024;2022-12-18T06:33:29;-5.80;99.90
52459;DHT22;38372;52.902;6.024;2022-12-18T06:36:01;-5.80;99.90
52459;DHT22;38372;52.902;6.024;2022-12-18T06:38:27;-5.80;99.90
52459;DHT22;38372;52.902;6.024;2022-12-18T06:40:53;-5.80;99.90
52459;DHT22;38372;52.902;6.024;2022-12-18T06:43:18;-5.90;99.90
52459;DHT22;38372;52.902;6.024;2022-12-18T06:45:44;-5.90;99.90
52459;DHT22;38372;52.902;6.024;2022-12-18T06:48:11;-5.80;99.90
52459;DHT22;38372;52.902;6.024;2022-12-18T06:50:37;-5.90;99.90
52459;DHT22;38372;52.902;6.024;2022-12-18T06:53:07;-5.80;99.90
52459;DHT22;38372;52.902;6.024;2022-12-18T06:55:33;-5.80;99.90
52459;DHT22;38372;52.902;6.024;2022-12-18T06:57:58;-5.70;99.90
52459;DHT22;38372;52.902;6.024;2022-12-18T07:00:24;-5.70;99.90
52459;DHT22;38372;52.902;6.024;2022-12-18T07:02:50;-5.70;99.90
52459;DHT22;38372;52.902;6.024;2022-12-18T07:05:16;-5.70;99.90
52459;DHT22;38372;52.902;6.024;2022-12-18T07:07:41;-5.70;99.90
52459;DHT22;38372;52.902;6.024;2022-12-18T07:10:07;-5.60;99.90
52459;DHT22;38372;52.902;6.024;2022-12-18T07:12:33;-5.60;99.90
52459;DHT22;38372;52.902;6.024;2022-12-18T07:14:59;-5.60;99.90
52459;DHT22;38372;52.902;6.024;2022-12-18T07:17:25;-5.60;99.90
52459;DHT22;38372;52.902;6.024;2022-12-18T07:19:51;-5.50;99.90
52459;DHT22;38372;52.902;6.024;2022-12-18T07:22:17;-5.50;99.90
52459;DHT22;38372;52.902;6.024;2022-12-18T07:24:42;-5.50;99.90
52459;DHT22;38372;52.902;6.024;2022-12-18T07:27:08;-5.50;99.90
52459;DHT22;38372;52.902;6.024;2022-12-18T07:29:34;-5.50;99.90
52459;DHT22;38372;52.902;6.024;2022-12-18T07:32:00;-5.40;99.90
52459;DHT22;38372;52.902;6.024;2022-12-18T07:34:25;-5.40;99.90
52459;DHT22;38372;52.902;6.024;2022-12-18T07:36:51;-5.30;99.90
52459;DHT22;38372;52.902;6.024;2022-12-18T07:39:17;-5.30;99.90
52459;DHT22;38372;52.902;6.024;2022-12-18T07:41:43;-5.20;99.90
52459;DHT22;38372;52.902;6.024;2022-12-18T07:44:12;-5.20;99.90
52459;DHT22;38372;52.902;6.024;2022-12-18T07:46:38;-5.20;99.90
52459;DHT22;38372;52.902;6.024;2022-12-18T07:49:04;-5.10;99.90
52459;DHT22;38372;52.902;6.024;2022-12-18T07:51:29;-5.10;99.90
52459;DHT22;38372;52.902;6.024;2022-12-18T07:53:56;-5.10;99.90
52459;DHT22;38372;52.902;6.024;2022-12-18T07:56:22;-5.10;99.90
52459;DHT22;38372;52.902;6.024;2022-12-18T07:58:48;-5.00;99.90
52459;DHT22;38372;52.902;6.024;2022-12-18T08:01:14;-4.90;99.90
52459;DHT22;38372;52.902;6.024;2022-12-18T08:03:40;-4.90;99.90
52459;DHT22;38372;52.902;6.024;2022-12-18T08:06:08;-4.80;99.90
52459;DHT22;38372;52.902;6.024;2022-12-18T08:08:34;-4.80;99.90
52459;DHT22;38372;52.902;6.024;2022-12-18T08:11:01;-4.70;99.90
52459;DHT22;38372;52.902;6.024;2022-12-18T08:13:27;-4.70;99.90
52459;DHT22;38372;52.902;6.024;2022-12-18T08:16:11;-4.60;99.90
52459;DHT22;38372;52.902;6.024;2022-12-18T08:18:37;-4.60;99.90
52459;DHT22;38372;52.902;6.024;2022-12-18T08:21:15;-4.50;99.90
52459;DHT22;38372;52.902;6.024;2022-12-18T08:23:41;-4.40;99.90
52459;DHT22;38372;52.902;6.024;2022-12-18T08:26:08;-4.30;99.90
52459;DHT22;38372;52.902;6.024;2022-12-18T08:28:34;-4.30;99.90
52459;DHT22;38372;52.902;6.024;2022-12-18T08:31:00;-4.20;99.90
52459;DHT22;38372;52.902;6.024;2022-12-18T08:33:26;-4.10;99.90
52459;DHT22;38372;52.902;6.024;2022-12-18T08:35:52;-4.00;99.90
52459;DHT22;38372;52.902;6.024;2022-12-18T08:38:18;-3.90;99.90
52459;DHT22;38372;52.902;6.024;2022-12-18T08:40:44;-3.90;99.90
52459;DHT22;38372;52.902;6.024;2022-12-18T08:43:10;-3.70;99.90
52459;DHT22;38372;52.902;6.024;2022-12-18T08:45:55;-3.70;99.90
52459;DHT22;38372;52.902;6.024;2022-12-18T08:48:21;-3.50;99.90
52459;DHT22;38372;52.902;6.024;2022-12-18T08:50:57;-3.40;99.90
52459;DHT22;38372;52.902;6.024;2022-12-18T08:53:23;-3.30;99.90
52459;DHT22;38372;52.902;6.024;2022-12-18T08:55:49;-3.10;99.90
52459;DHT22;38372;52.902;6.024;2022-12-18T08:58:15;-2.90;99.90
52459;DHT22;38372;52.902;6.024;2022-12-18T09:00:41;-2.70;99.90
52459;DHT22;38372;52.902;6.024;2022-12-18T09:03:17;-2.50;99.90
52459;DHT22;38372;52.902;6.024;2022-12-18T09:05:43;-2.40;99.90
52459;DHT22;38372;52.902;6.024;2022-12-18T09:08:09;-2.40;99.90
52459;DHT22;38372;52.902;6.024;2022-12-18T09:10:42;-2.40;99.90
52459;DHT22;38372;52.902;6.024;2022-12-18T09:13:10;-2.30;99.90
52459;DHT22;38372;52.902;6.024;2022-12-18T09:15:47;-2.20;99.90
52459;DHT22;38372;52.902;6.024;2022-12-18T09:18:15;-1.70;99.90
52459;DHT22;38372;52.902;6.024;2022-12-18T09:20:42;-1.40;99.90
52459;DHT22;38372;52.902;6.024;2022-12-18T09:23:08;-1.10;99.90
52459;DHT22;38372;52.902;6.024;2022-12-18T09:25:35;-0.80;99.90
52459;DHT22;38372;52.902;6.024;2022-12-18T09:28:19;-0.70;99.90
52459;DHT22;38372;52.902;6.024;2022-12-18T09:30:47;-0.80;99.90
52459;DHT22;38372;52.902;6.024;2022-12-18T09:33:14;-1.00;99.90
52459;DHT22;38372;52.902;6.024;2022-12-18T09:35:41;-1.20;99.90
52459;DHT22;38372;52.902;6.024;2022-12-18T09:38:13;-1.20;99.90
52459;DHT22;38372;52.902;6.024;2022-12-18T09:40:44;-1.20;99.90
52459;DHT22;38372;52.902;6.024;2022-12-18T09:43:26;-1.10;99.90
52459;DHT22;38372;52.902;6.024;2022-12-18T09:46:06;-1.10;99.90
52459;DHT22;38372;52.902;6.024;2022-12-18T09:48:36;-1.10;99.90
52459;DHT22;38372;52.902;6.024;2022-12-18T09:51:10;-1.10;99.90
52459;DHT22;38372;52.902;6.024;2022-12-18T09:53:39;-1.10;99.90
52459;DHT22;38372;52.902;6.024;2022-12-18T09:56:06;-0.90;99.90
52459;DHT22;38372;52.902;6.024;2022-12-18T09:58:41;-0.70;99.90
52459;DHT22;38372;52.902;6.024;2022-12-18T10:01:18;-0.60;99.90
52459;DHT22;38372;52.902;6.024;2022-12-18T10:03:45;-0.70;99.90
52459;DHT22;38372;52.902;6.024;2022-12-18T10:17:27;-1.60;99.90
52459;DHT22;38372;52.902;6.024;2022-12-18T10:20:30;-1.70;99.90
52459;DHT22;38372;52.902;6.024;2022-12-18T10:26:09;-1.90;99.90
52459;DHT22;38372;52.902;6.024;2022-12-18T10:28:37;-1.90;99.90
52459;DHT22;38372;52.902;6.024;2022-12-18T10:31:23;-1.90;99.90
52459;DHT22;38372;52.902;6.024;2022-12-18T10:33:49;-1.90;99.90
52459;DHT22;38372;52.902;6.024;2022-12-18T10:36:15;-1.90;99.90
52459;DHT22;38372;52.902;6.024;2022-12-18T10:38:42;-1.90;99.90
52459;DHT22;38372;52.902;6.024;2022-12-18T10:44:20;-1.90;99.90
52459;DHT22;38372;52.902;6.024;2022-12-18T10:46:49;-1.90;99.90
52459;DHT22;38372;52.902;6.024;2022-12-18T10:49:28;-1.90;99.90
52459;DHT22;38372;52.902;6.024;2022-12-18T10:54:59;-1.90;99.90
52459;DHT22;38372;52.902;6.024;2022-12-18T10:57:36;-1.80;99.90
52459;DHT22;38372;52.902;6.024;2022-12-18T11:02:47;-1.80;99.90
52459;DHT22;38372;52.902;6.024;2022-12-18T11:05:36;-1.70;99.90
52459;DHT22;38372;52.902;6.024;2022-12-18T11:08:02;-1.70;99.90
52459;DHT22;38372;52.902;6.024;2022-12-18T11:10:32;-1.60;99.90
52459;DHT22;38372;52.902;6.024;2022-12-18T11:13:19;-1.50;99.90
52459;DHT22;38372;52.902;6.024;2022-12-18T11:15:46;-1.40;99.90
52459;DHT22;38372;52.902;6.024;2022-12-18T11:18:33;-1.40;99.90
52459;DHT22;38372;52.902;6.024;2022-12-18T11:21:08;-1.30;99.90
52459;DHT22;38372;52.902;6.024;2022-12-18T11:23:36;-1.30;99.90
52459;DHT22;38372;52.902;6.024;2022-12-18T11:26:04;-1.20;99.90
52459;DHT22;38372;52.902;6.024;2022-12-18T11:28:38;-1.20;99.90
52459;DHT22;38372;52.902;6.024;2022-12-18T11:31:16;-1.10;99.90
52459;DHT22;38372;52.902;6.024;2022-12-18T11:34:09;-1.10;99.90
52459;DHT22;38372;52.902;6.024;2022-12-18T11:36:42;-1.10;99.90
52459;DHT22;38372;52.902;6.024;2022-12-18T11:42:05;-1.10;99.90
52459;DHT22;38372;52.902;6.024;2022-12-18T11:44:50;-1.10;99.90
52459;DHT22;38372;52.902;6.024;2022-12-18T11:47:38;-1.00;99.90
52459;DHT22;38372;52.902;6.024;2022-12-18T11:50:28;-1.00;99.90
52459;DHT22;38372;52.902;6.024;2022-12-18T11:52:55;-1.00;99.90
52459;DHT22;38372;52.902;6.024;2022-12-18T11:55:33;-1.00;99.90
52459;DHT22;38372;52.902;6.024;2022-12-18T12:00:28;-1.00;99.90
52459;DHT22;38372;52.902;6.024;2022-12-18T12:05:56;-1.00;99.90
52459;DHT22;38372;52.902;6.024;2022-12-18T12:08:54;-1.00;99.90
52459;DHT22;38372;52.902;6.024;2022-12-18T12:14:57;-1.00;99.90
52459;DHT22;38372;52.902;6.024;2022-12-18T12:22:55;-1.00;99.90
52459;DHT22;38372;52.902;6.024;2022-12-18T12:25:37;-1.00;99.90
52459;DHT22;38372;52.902;6.024;2022-12-18T12:36:40;-0.80;99.90
52459;DHT22;38372;52.902;6.024;2022-12-18T12:39:10;-0.70;99.90
52459;DHT22;38372;52.902;6.024;2022-12-18T12:41:39;-0.70;99.90
52459;DHT22;38372;52.902;6.024;2022-12-18T12:44:29;-0.70;99.90
52459;DHT22;38372;52.902;6.024;2022-12-18T12:47:00;-0.70;99.90
52459;DHT22;38372;52.902;6.024;2022-12-18T12:49:31;-0.70;99.90
52459;DHT22;38372;52.902;6.024;2022-12-18T12:52:10;-0.70;99.90
52459;DHT22;38372;52.902;6.024;2022-12-18T12:54:36;-0.70;99.90
52459;DHT22;38372;52.902;6.024;2022-12-18T13:05:23;-0.60;99.90
52459;DHT22;38372;52.902;6.024;2022-12-18T13:08:05;-0.60;99.90
52459;DHT22;38372;52.902;6.024;2022-12-18T13:10:34;-0.60;99.90
52459;DHT22;38372;52.902;6.024;2022-12-18T13:13:09;-0.60;99.90
52459;DHT22;38372;52.902;6.024;2022-12-18T13:18:24;-0.70;99.90
52459;DHT22;38372;52.902;6.024;2022-12-18T13:25:55;-0.60;99.90
52459;DHT22;38372;52.902;6.024;2022-12-18T13:31:13;-0.70;99.90
52459;DHT22;38372;52.902;6.024;2022-12-18T13:33:44;-0.70;99.90
52459;DHT22;38372;52.902;6.024;2022-12-18T13:41:47;-0.60;99.90
52459;DHT22;38372;52.902;6.024;2022-12-18T13:44:28;-0.60;99.90
52459;DHT22;38372;52.902;6.024;2022-12-18T13:46:57;-0.60;99.90
52459;DHT22;38372;52.902;6.024;2022-12-18T13:49:40;-0.60;99.90
52459;DHT22;38372;52.902;6.024;2022-12-18T13:52:22;-0.60;99.90
52459;DHT22;38372;52.902;6.024;2022-12-18T13:54:56;-0.60;99.90
52459;DHT22;38372;52.902;6.024;2022-12-18T13:57:36;-0.60;99.90
52459;DHT22;38372;52.902;6.024;2022-12-18T14:02:48;-0.60;99.90
52459;DHT22;38372;52.902;6.024;2022-12-18T14:05:28;-0.60;99.90
52459;DHT22;38372;52.902;6.024;2022-12-18T14:08:00;-0.60;99.90
52459;DHT22;38372;52.902;6.024;2022-12-18T14:10:30;-0.60;99.90
52459;DHT22;38372;52.902;6.024;2022-12-18T14:12:57;-0.60;99.90
52459;DHT22;38372;52.902;6.024;2022-12-18T14:15:33;-0.70;99.90
52459;DHT22;38372;52.902;6.024;2022-12-18T14:20:50;-0.70;99.90
52459;DHT22;38372;52.902;6.024;2022-12-18T14:23:39;-0.70;99.90
52459;DHT22;38372;52.902;6.024;2022-12-18T14:26:24;-0.70;99.90
52459;DHT22;38372;52.902;6.024;2022-12-18T14:28:52;-0.70;99.90
52459;DHT22;38372;52.902;6.024;2022-12-18T14:31:30;-0.70;99.90
52459;DHT22;38372;52.902;6.024;2022-12-18T14:33:56;-0.80;99.90
52459;DHT22;38372;52.902;6.024;2022-12-18T14:36:24;-0.80;99.90
52459;DHT22;38372;52.902;6.024;2022-12-18T14:38:56;-0.80;99.90
52459;DHT22;38372;52.902;6.024;2022-12-18T14:41:28;-0.80;99.90
52459;DHT22;38372;52.902;6.024;2022-12-18T14:43:54;-0.90;99.90
52459;DHT22;38372;52.902;6.024;2022-12-18T14:46:35;-0.90;99.90
52459;DHT22;38372;52.902;6.024;2022-12-18T14:49:37;-0.90;99.90
52459;DHT22;38372;52.902;6.024;2022-12-18T14:52:27;-1.00;99.90
52459;DHT22;38372;52.902;6.024;2022-12-18T14:54:54;-0.90;99.90
52459;DHT22;38372;52.902;6.024;2022-12-18T14:57:25;-0.90;99.90
52459;DHT22;38372;52.902;6.024;2022-12-18T14:59:52;-0.90;99.90
52459;DHT22;38372;52.902;6.024;2022-12-18T15:02:27;-0.90;99.90
52459;DHT22;38372;52.902;6.024;2022-12-18T15:05:26;-0.90;99.90
52459;DHT22;38372;52.902;6.024;2022-12-18T15:07:58;-0.90;99.90
52459;DHT22;38372;52.902;6.024;2022-12-18T15:10:26;-0.90;99.90
52459;DHT22;38372;52.902;6.024;2022-12-18T15:20:32;-0.80;99.90
52459;DHT22;38372;52.902;6.024;2022-12-18T15:22:58;-0.80;99.90
52459;DHT22;38372;52.902;6.024;2022-12-18T15:25:45;-0.70;99.90
52459;DHT22;38372;52.902;6.024;2022-12-18T15:31:17;-0.70;99.90
52459;DHT22;38372;52.902;6.024;2022-12-18T15:36:19;-0.60;99.90
52459;DHT22;38372;52.902;6.024;2022-12-18T15:38:53;-0.70;99.90
52459;DHT22;38372;52.902;6.024;2022-12-18T15:41:20;-0.60;99.90
52459;DHT22;38372;52.902;6.024;2022-12-18T15:43:50;-0.60;99.90
52459;DHT22;38372;52.902;6.024;2022-12-18T15:46:20;-0.60;99.90
52459;DHT22;38372;52.902;6.024;2022-12-18T15:48:51;-0.60;99.90
52459;DHT22;38372;52.902;6.024;2022-12-18T15:53:48;-0.50;99.90
52459;DHT22;38372;52.902;6.024;2022-12-18T15:56:16;-0.60;99.90
52459;DHT22;38372;52.902;6.024;2022-12-18T15:59:02;-0.50;99.90
52459;DHT22;38372;52.902;6.024;2022-12-18T16:01:30;-0.50;99.90
52459;DHT22;38372;52.902;6.024;2022-12-18T16:03:57;-0.50;99.90
52459;DHT22;38372;52.902;6.024;2022-12-18T16:06:23;-0.50;99.90
52459;DHT22;38372;52.902;6.024;2022-12-18T16:08:49;-0.50;99.90
52459;DHT22;38372;52.902;6.024;2022-12-18T16:11:23;-0.50;99.90
52459;DHT22;38372;52.902;6.024;2022-12-18T16:16:40;-0.50;99.90
52459;DHT22;38372;52.902;6.024;2022-12-18T16:19:07;-0.50;99.90
52459;DHT22;38372;52.902;6.024;2022-12-18T16:21:33;-0.40;99.90
52459;DHT22;38372;52.902;6.024;2022-12-18T16:23:58;-0.40;99.90
52459;DHT22;38372;52.902;6.024;2022-12-18T16:26:25;-0.40;99.90
52459;DHT22;38372;52.902;6.024;2022-12-18T16:28:51;-0.40;99.90
52459;DHT22;38372;52.902;6.024;2022-12-18T16:31:18;-0.40;99.90
52459;DHT22;38372;52.902;6.024;2022-12-18T16:33:44;-0.40;99.90
52459;DHT22;38372;52.902;6.024;2022-12-18T16:36:10;-0.40;99.90
52459;DHT22;38372;52.902;6.024;2022-12-18T16:38:36;-0.40;99.90
52459;DHT22;38372;52.902;6.024;2022-12-18T16:41:02;-0.40;99.90
52459;DHT22;38372;52.902;6.024;2022-12-18T16:43:50;-0.40;99.90
52459;DHT22;38372;52.902;6.024;2022-12-18T16:46:16;-0.40;99.90
52459;DHT22;38372;52.902;6.024;2022-12-18T16:48:41;-0.40;99.90
52459;DHT22;38372;52.902;6.024;2022-12-18T16:51:07;-0.40;99.90
52459;DHT22;38372;52.902;6.024;2022-12-18T16:53:33;-0.40;99.90
52459;DHT22;38372;52.902;6.024;2022-12-18T16:55:59;-0.30;99.90
52459;DHT22;38372;52.902;6.024;2022-12-18T16:58:24;-0.30;99.90
52459;DHT22;38372;52.902;6.024;2022-12-18T17:00:50;-0.30;99.90
52459;DHT22;38372;52.902;6.024;2022-12-18T17:03:16;-0.30;99.90
52459;DHT22;38372;52.902;6.024;2022-12-18T17:05:42;-0.30;99.90
52459;DHT22;38372;52.902;6.024;2022-12-18T17:08:07;-0.30;99.90
52459;DHT22;38372;52.902;6.024;2022-12-18T17:10:36;-0.30;99.90
52459;DHT22;38372;52.902;6.024;2022-12-18T17:13:02;-0.30;99.90
52459;DHT22;38372;52.902;6.024;2022-12-18T17:15:28;-0.20;99.90
52459;DHT22;38372;52.902;6.024;2022-12-18T17:17:54;-0.30;99.90
52459;DHT22;38372;52.902;6.024;2022-12-18T17:20:20;-0.20;99.90
52459;DHT22;38372;52.902;6.024;2022-12-18T17:22:45;-0.20;99.90
52459;DHT22;38372;52.902;6.024;2022-12-18T17:25:11;-0.20;99.90
52459;DHT22;38372;52.902;6.024;2022-12-18T17:27:37;-0.20;99.90
52459;DHT22;38372;52.902;6.024;2022-12-18T17:30:03;-0.10;99.90
52459;DHT22;38372;52.902;6.024;2022-12-18T17:32:29;-0.10;99.90
52459;DHT22;38372;52.902;6.024;2022-12-18T17:34:55;-0.10;99.90
52459;DHT22;38372;52.902;6.024;2022-12-18T17:37:20;-0.10;99.90
52459;DHT22;38372;52.902;6.024;2022-12-18T17:39:46;-0.10;99.90
52459;DHT22;38372;52.902;6.024;2022-12-18T17:42:12;-0.10;99.90
52459;DHT22;38372;52.902;6.024;2022-12-18T17:44:39;0.00;99.90
52459;DHT22;38372;52.902;6.024;2022-12-18T17:47:07;0.00;99.90
52459;DHT22;38372;52.902;6.024;2022-12-18T17:49:36;0.00;99.90
52459;DHT22;38372;52.902;6.024;2022-12-18T17:52:02;0.00;99.90
52459;DHT22;38372;52.902;6.024;2022-12-18T17:54:28;0.00;99.90
52459;DHT22;38372;52.902;6.024;2022-12-18T17:56:54;0.10;99.90